Terminal Aerodrome Forecast
Issued by NWS

Home | Current Version | Previous Version | Text Only | Print | Product List | Glossary On
Versions: 1 2 3 4 5 6 7 8 9 10 11 12
000
FTUS45 KABQ 011722
TAFTCC
TAF
KTCC 011722Z 0118/0218 21012KT P6SM FEW100
     FM012200 20015G25KT P6SM VCSH BKN100
     FM020300 20010KT P6SM BKN120
     FM021600 24012G20KT P6SM SCT100=

USA.gov is the U.S. government's official web portal to all federal, state and local government web resources and services.